Time;durP1;ratioP1;P1;durP2;ratioP2;P2;SDS_P1;SDS_P2;PMS_P1;PMS_P2;Temp;Humidity;BMP_temperature;BMP_pressure;BME280_temperature;BME280_humidity;BME280_pressure;Samples;Min_cycle;Max_cycle;Signal;HPM_P1;HPM_P2
2023/02/05 00:00:55;;;;;;;26.92;11.50;;;8.20;99.90;;;;;;2090912;28;20084;-74
2023/02/05 00:01:55;;;;;;;23.92;11.00;;;8.20;99.90;;;;;;2092756;28;20020;-74
2023/02/05 00:02:56;;;;;;;26.23;11.68;;;8.20;99.90;;;;;;2090146;28;20171;-74
2023/02/05 00:03:56;;;;;;;29.13;10.80;;;8.20;99.90;;;;;;2094972;28;20074;-74
2023/02/05 00:04:57;;;;;;;25.25;10.82;;;8.20;99.90;;;;;;2091412;28;20032;-74
2023/02/05 00:05:57;;;;;;;30.33;13.07;;;8.20;99.90;;;;;;2090171;28;20037;-74
2023/02/05 00:06:58;;;;;;;28.92;12.50;;;8.20;99.90;;;;;;2091370;28;20037;-74
2023/02/05 00:07:59;;;;;;;27.05;12.20;;;8.20;99.90;;;;;;2090060;28;20085;-74
2023/02/05 00:08:59;;;;;;;26.05;11.93;;;8.20;99.90;;;;;;2092823;28;20116;-74
2023/02/05 00:10:00;;;;;;;25.40;11.07;;;8.20;99.90;;;;;;2082014;28;20029;-74
2023/02/05 00:11:08;;;;;;;27.70;11.30;;;8.20;99.90;;;;;;2090354;28;20029;-75
2023/02/05 00:12:08;;;;;;;24.63;10.70;;;8.20;99.90;;;;;;2091992;28;20020;-74
2023/02/05 00:13:09;;;;;;;28.35;13.00;;;8.20;99.90;;;;;;2091608;28;20029;-74
2023/02/05 00:14:09;;;;;;;31.80;13.10;;;8.20;99.90;;;;;;2091873;28;20028;-74
2023/02/05 00:15:10;;;;;;;28.75;12.20;;;8.20;99.90;;;;;;2093690;28;20019;-75
2023/02/05 00:16:16;;;;;;;29.58;12.82;;;8.20;99.90;;;;;;2093795;28;20020;-74
2023/02/05 00:17:17;;;;;;;31.45;12.45;;;8.20;99.90;;;;;;2092132;28;20115;-74
2023/02/05 00:18:18;;;;;;;30.13;12.48;;;8.10;99.90;;;;;;2093536;28;20033;-74
2023/02/05 00:19:18;;;;;;;26.38;11.63;;;8.10;99.90;;;;;;2089575;28;20017;-74
2023/02/05 00:20:19;;;;;;;33.67;12.70;;;8.20;99.90;;;;;;2091910;28;20083;-74
2023/02/05 00:21:21;;;;;;;30.00;11.25;;;8.20;99.90;;;;;;2091099;28;20040;-74
2023/02/05 00:22:22;;;;;;;30.70;11.73;;;8.10;99.90;;;;;;2092236;28;20050;-74
2023/02/05 00:23:22;;;;;;;25.38;10.85;;;8.20;99.90;;;;;;2091576;28;20171;-74
2023/02/05 00:24:23;;;;;;;25.73;12.07;;;8.20;99.90;;;;;;2083991;28;20485;-74
2023/02/05 00:25:23;;;;;;;30.05;12.52;;;8.20;99.90;;;;;;2092284;28;20025;-74
2023/02/05 00:26:24;;;;;;;27.63;12.10;;;8.20;99.90;;;;;;2092883;28;20068;-74
2023/02/05 00:27:25;;;;;;;28.60;11.55;;;8.20;99.90;;;;;;2093359;28;20373;-74
2023/02/05 00:28:25;;;;;;;29.58;12.90;;;8.20;99.90;;;;;;2091942;28;20598;-74
2023/02/05 00:29:26;;;;;;;27.15;12.25;;;8.20;99.90;;;;;;2092530;28;20640;-74
2023/02/05 00:30:27;;;;;;;24.55;11.25;;;8.20;99.90;;;;;;2091372;28;20452;-74
2023/02/05 00:31:27;;;;;;;30.17;12.85;;;8.20;99.90;;;;;;2092002;28;20021;-75
2023/02/05 00:32:28;;;;;;;24.15;12.43;;;8.20;99.90;;;;;;2091006;28;20031;-74
2023/02/05 00:33:28;;;;;;;26.42;12.38;;;8.20;99.90;;;;;;2092325;28;20072;-75
2023/02/05 00:34:29;;;;;;;27.58;12.63;;;8.20;99.90;;;;;;2093678;28;20020;-74
2023/02/05 00:35:29;;;;;;;35.42;13.25;;;8.20;99.90;;;;;;2092409;28;20048;-74
2023/02/05 00:36:30;;;;;;;32.47;13.15;;;8.20;99.90;;;;;;2091040;28;20179;-74
2023/02/05 00:37:30;;;;;;;37.25;13.55;;;8.20;99.90;;;;;;2091196;28;20682;-74
2023/02/05 00:38:31;;;;;;;27.02;12.68;;;8.20;99.90;;;;;;2091403;28;20029;-74
2023/02/05 00:39:32;;;;;;;29.98;12.23;;;8.20;99.90;;;;;;2092568;28;20057;-75
2023/02/05 00:40:32;;;;;;;28.42;12.23;;;8.20;99.90;;;;;;2093635;28;20033;-74
2023/02/05 00:41:33;;;;;;;30.02;12.27;;;8.20;99.90;;;;;;2092298;28;20020;-74
2023/02/05 00:42:33;;;;;;;30.80;12.68;;;8.20;99.90;;;;;;2085476;28;20497;-74
2023/02/05 00:43:34;;;;;;;26.88;12.30;;;8.20;99.90;;;;;;2092984;28;20560;-74
2023/02/05 00:44:34;;;;;;;33.65;13.77;;;8.20;99.90;;;;;;2094046;28;20063;-74
2023/02/05 00:45:35;;;;;;;31.95;12.90;;;8.20;99.90;;;;;;2091623;28;20029;-74
2023/02/05 00:46:35;;;;;;;29.08;12.45;;;8.20;99.90;;;;;;2088611;28;20064;-74
2023/02/05 00:47:36;;;;;;;29.95;12.73;;;8.20;99.90;;;;;;2091300;28;20033;-74
2023/02/05 00:48:37;;;;;;;27.15;11.52;;;8.20;99.90;;;;;;2091374;28;20708;-74
2023/02/05 00:49:38;;;;;;;29.80;13.13;;;8.20;99.90;;;;;;2091947;28;20047;-75
2023/02/05 00:50:39;;;;;;;27.58;12.40;;;8.20;99.90;;;;;;2089239;28;20016;-74
2023/02/05 00:51:40;;;;;;;29.48;12.35;;;8.20;99.90;;;;;;2092784;28;20124;-74
2023/02/05 00:52:40;;;;;;;34.08;13.02;;;8.20;99.90;;;;;;2095783;28;20035;-74
2023/02/05 00:53:41;;;;;;;26.88;12.13;;;8.30;99.90;;;;;;2092645;28;20028;-75
2023/02/05 00:54:41;;;;;;;29.15;12.82;;;8.30;99.90;;;;;;2090176;28;20376;-74
2023/02/05 00:55:42;;;;;;;36.05;13.10;;;8.30;99.90;;;;;;2089591;28;20127;-74
2023/02/05 00:56:42;;;;;;;37.72;12.95;;;8.30;99.90;;;;;;2081453;28;20026;-74
2023/02/05 00:57:43;;;;;;;27.92;12.50;;;8.30;99.90;;;;;;2086003;28;20056;-74
2023/02/05 00:58:46;;;;;;;30.25;11.25;;;8.30;99.90;;;;;;2090527;28;20399;-74
2023/02/05 00:59:47;;;;;;;34.70;11.82;;;8.20;99.90;;;;;;2090576;28;20040;-74
2023/02/05 01:00:49;;;;;;;36.55;12.65;;;8.30;99.90;;;;;;2090292;28;20024;-74
2023/02/05 01:01:50;;;;;;;33.47;12.32;;;8.30;99.90;;;;;;2091441;28;20120;-74
2023/02/05 01:02:50;;;;;;;30.25;12.07;;;8.30;99.90;;;;;;2093222;28;20039;-74
2023/02/05 01:03:51;;;;;;;37.13;13.30;;;8.20;99.90;;;;;;2093519;28;20020;-74
2023/02/05 01:04:51;;;;;;;38.05;13.40;;;8.20;99.90;;;;;;2092561;28;20028;-74
2023/02/05 01:05:52;;;;;;;33.53;13.00;;;8.20;99.90;;;;;;2093853;28;20123;-74
2023/02/05 01:06:52;;;;;;;31.17;11.75;;;8.20;99.90;;;;;;2095592;28;20675;-74
2023/02/05 01:07:53;;;;;;;30.00;11.90;;;8.30;99.90;;;;;;2091778;28;20079;-74
2023/02/05 01:08:53;;;;;;;27.77;12.02;;;8.30;99.90;;;;;;2090989;28;20027;-74
2023/02/05 01:09:54;;;;;;;32.85;11.73;;;8.30;99.90;;;;;;2091914;28;20025;-74
2023/02/05 01:10:55;;;;;;;35.53;11.32;;;8.30;99.90;;;;;;2089523;28;20516;-74
2023/02/05 01:11:56;;;;;;;32.80;11.77;;;8.30;99.90;;;;;;2093259;28;20039;-74
2023/02/05 01:12:56;;;;;;;33.50;11.35;;;8.30;99.90;;;;;;2095822;28;20028;-74
2023/02/05 01:13:57;;;;;;;32.63;11.95;;;8.30;99.90;;;;;;2086401;28;20089;-74
2023/02/05 01:14:59;;;;;;;30.08;11.90;;;8.30;99.90;;;;;;2091872;28;20691;-74
2023/02/05 01:15:59;;;;;;;43.15;14.40;;;8.30;99.90;;;;;;2091327;28;20074;-74
2023/02/05 01:17:00;;;;;;;39.75;11.88;;;8.30;99.90;;;;;;2094431;28;20063;-74
2023/02/05 01:18:00;;;;;;;30.42;11.50;;;8.30;99.90;;;;;;2091115;28;20021;-74
2023/02/05 01:19:01;;;;;;;37.60;11.80;;;8.30;99.90;;;;;;2091696;28;20130;-74
2023/02/05 01:20:02;;;;;;;36.97;11.88;;;8.30;99.90;;;;;;2090949;28;20082;-74
2023/02/05 01:21:02;;;;;;;38.90;12.35;;;8.30;99.90;;;;;;2092275;28;20021;-74
2023/02/05 01:22:04;;;;;;;30.95;11.15;;;8.30;99.90;;;;;;2092347;28;20545;-75
2023/02/05 01:23:04;;;;;;;45.08;13.20;;;8.30;99.90;;;;;;2093435;28;20402;-74
2023/02/05 01:24:05;;;;;;;34.08;12.85;;;8.30;99.90;;;;;;2091118;28;20099;-75
2023/02/05 01:25:06;;;;;;;35.38;12.52;;;8.30;99.90;;;;;;2090676;28;20021;-74
2023/02/05 01:26:07;;;;;;;41.25;12.95;;;8.30;99.90;;;;;;2094623;28;20118;-74
2023/02/05 01:27:08;;;;;;;34.67;11.90;;;8.30;99.90;;;;;;2093098;28;20107;-74
2023/02/05 01:28:08;;;;;;;35.28;13.00;;;8.30;99.90;;;;;;2090849;28;20033;-74
2023/02/05 01:29:09;;;;;;;33.10;11.15;;;8.30;99.90;;;;;;2091288;28;20050;-74
2023/02/05 01:30:10;;;;;;;35.15;11.88;;;8.30;99.90;;;;;;2091391;28;20564;-74
2023/02/05 01:31:11;;;;;;;38.15;13.98;;;8.30;99.90;;;;;;2091579;28;20044;-74
2023/02/05 01:32:11;;;;;;;40.17;13.00;;;8.30;99.90;;;;;;2091220;28;20044;-74
2023/02/05 01:33:12;;;;;;;37.25;12.10;;;8.30;99.90;;;;;;2090216;28;20128;-74
2023/02/05 01:34:13;;;;;;;36.08;11.90;;;8.30;99.90;;;;;;2091561;28;20037;-74
2023/02/05 01:35:13;;;;;;;37.92;13.82;;;8.30;99.90;;;;;;2090443;28;20635;-74
2023/02/05 01:36:14;;;;;;;31.25;12.00;;;8.40;99.90;;;;;;2093707;28;20105;-74
2023/02/05 01:37:14;;;;;;;42.97;13.18;;;8.30;99.90;;;;;;2093389;28;20638;-74
2023/02/05 01:38:15;;;;;;;33.85;12.80;;;8.40;99.90;;;;;;2082743;28;20393;-74
2023/02/05 01:39:15;;;;;;;39.63;12.77;;;8.40;99.90;;;;;;2082949;28;20029;-74
2023/02/05 01:40:17;;;;;;;44.05;12.90;;;8.40;99.90;;;;;;2084537;28;20036;-74
2023/02/05 01:41:18;;;;;;;31.15;12.30;;;8.40;99.90;;;;;;2092116;28;20028;-74
2023/02/05 01:42:24;;;;;;;36.45;13.18;;;8.40;99.90;;;;;;2090772;28;20399;-74
2023/02/05 01:43:24;;;;;;;38.05;12.70;;;8.40;99.90;;;;;;2091337;28;20037;-74
2023/02/05 01:44:25;;;;;;;31.38;12.82;;;8.40;99.90;;;;;;2091120;28;20184;-74
2023/02/05 01:45:25;;;;;;;38.05;12.20;;;8.40;99.90;;;;;;2091921;28;20032;-74
2023/02/05 01:46:29;;;;;;;35.40;11.80;;;8.40;99.90;;;;;;2090124;28;20138;-74
2023/02/05 01:47:30;;;;;;;31.90;12.38;;;8.40;99.90;;;;;;2094085;28;20024;-75
2023/02/05 01:48:35;;;;;;;31.67;11.65;;;8.40;99.90;;;;;;2091425;28;20021;-74
2023/02/05 01:49:41;;;;;;;34.20;12.02;;;8.40;99.90;;;;;;2089395;28;20064;-74
2023/02/05 01:50:47;;;;;;;34.92;13.40;;;8.40;99.90;;;;;;2093300;28;20622;-74
2023/02/05 01:51:49;;;;;;;41.70;13.10;;;8.50;99.90;;;;;;2093665;28;20033;-74
2023/02/05 01:52:50;;;;;;;32.88;12.75;;;8.40;99.90;;;;;;2093527;28;20024;-74
2023/02/05 01:53:50;;;;;;;35.38;12.82;;;8.40;99.90;;;;;;2088674;28;20032;-74
2023/02/05 01:54:53;;;;;;;38.28;12.30;;;8.40;99.90;;;;;;2092354;28;20532;-74
2023/02/05 01:55:58;;;;;;;39.92;12.43;;;8.50;99.90;;;;;;2088939;28;20103;-74
2023/02/05 01:57:21;;;;;;;35.90;13.32;;;8.50;99.90;;;;;;2092764;28;20026;-74
2023/02/05 01:58:23;;;;;;;34.55;13.32;;;8.50;99.90;;;;;;2090106;28;20029;-74
2023/02/05 01:59:27;;;;;;;40.03;14.88;;;8.50;99.90;;;;;;2090351;28;20025;-74
2023/02/05 02:00:28;;;;;;;41.55;13.45;;;8.50;99.90;;;;;;2090718;28;20418;-74
2023/02/05 02:01:30;;;;;;;36.20;13.52;;;8.50;99.90;;;;;;2094098;28;20032;-74
2023/02/05 02:02:33;;;;;;;42.08;13.18;;;8.50;99.90;;;;;;2092362;28;20116;-74
2023/02/05 02:03:34;;;;;;;34.60;12.25;;;8.50;99.90;;;;;;2092525;28;20108;-74
2023/02/05 02:04:37;;;;;;;37.25;12.10;;;8.50;99.90;;;;;;2091177;28;20033;-74
2023/02/05 02:05:38;;;;;;;33.15;12.85;;;8.50;99.90;;;;;;2090082;28;20025;-74
2023/02/05 02:06:38;;;;;;;36.47;12.98;;;8.50;99.90;;;;;;2093708;28;20116;-74
2023/02/05 02:07:39;;;;;;;33.95;12.63;;;8.50;99.90;;;;;;2093854;28;20025;-74
2023/02/05 02:08:40;;;;;;;41.15;14.82;;;8.50;99.90;;;;;;2091843;28;20021;-74
2023/02/05 02:09:43;;;;;;;39.22;14.52;;;8.50;99.90;;;;;;2091983;28;20194;-74
2023/02/05 02:10:45;;;;;;;29.05;12.75;;;8.50;99.90;;;;;;2091404;28;20799;-75
2023/02/05 02:11:45;;;;;;;39.28;13.15;;;8.50;99.90;;;;;;2093207;28;20036;-74
2023/02/05 02:12:48;;;;;;;43.78;15.20;;;8.60;99.90;;;;;;2089964;28;20027;-74
2023/02/05 02:13:51;;;;;;;34.45;12.60;;;8.60;99.90;;;;;;2091733;28;20455;-74
2023/02/05 02:14:55;;;;;;;28.58;12.75;;;8.60;99.90;;;;;;2090907;28;20024;-74
2023/02/05 02:15:57;;;;;;;37.38;13.27;;;8.60;99.90;;;;;;2089360;28;20074;-74
2023/02/05 02:16:59;;;;;;;35.85;13.77;;;8.60;99.90;;;;;;2093603;28;20059;-74
2023/02/05 02:19:26;;;;;;;38.75;14.18;;;8.60;99.90;;;;;;2090866;28;20041;-74
2023/02/05 02:20:34;;;;;;;41.30;14.23;;;8.50;99.90;;;;;;2091586;28;20028;-74
2023/02/05 02:21:57;;;;;;;33.55;14.05;;;8.60;99.90;;;;;;2090999;28;20095;-74
2023/02/05 02:23:15;;;;;;;31.33;12.45;;;8.50;99.90;;;;;;2090462;28;20027;-74
2023/02/05 02:24:18;;;;;;;36.42;13.23;;;8.50;99.90;;;;;;2091019;28;20076;-74
2023/02/05 02:25:37;;;;;;;40.28;14.43;;;8.50;99.90;;;;;;2092855;28;20107;-74
2023/02/05 02:27:15;;;;;;;37.95;13.35;;;8.60;99.90;;;;;;2091335;28;20056;-74
2023/02/05 02:28:30;;;;;;;39.30;14.07;;;8.50;99.90;;;;;;2089450;28;20032;-75
2023/02/05 02:29:36;;;;;;;32.75;14.45;;;8.50;99.90;;;;;;2090374;28;20554;-75
2023/02/05 02:30:46;;;;;;;37.47;14.45;;;8.50;99.90;;;;;;2092052;28;20063;-74
2023/02/05 02:32:02;;;;;;;37.08;14.75;;;8.50;99.90;;;;;;2091149;28;20032;-74
2023/02/05 02:33:12;;;;;;;42.20;15.40;;;8.50;99.90;;;;;;2092883;28;20436;-74
2023/02/05 02:34:38;;;;;;;38.28;15.13;;;8.50;99.90;;;;;;2088660;28;20039;-74
2023/02/05 02:35:59;;;;;;;34.45;13.73;;;8.50;99.90;;;;;;2088583;28;20025;-74
2023/02/05 02:37:09;;;;;;;43.95;15.73;;;8.50;99.90;;;;;;2090960;28;20479;-74
2023/02/05 02:38:21;;;;;;;41.00;14.45;;;8.50;99.90;;;;;;2091536;28;20063;-74
2023/02/05 02:39:44;;;;;;;39.80;15.13;;;8.50;99.90;;;;;;2090338;28;20040;-74
2023/02/05 02:40:51;;;;;;;35.00;14.98;;;8.50;99.90;;;;;;2090784;28;20063;-74
2023/02/05 02:42:04;;;;;;;35.30;13.65;;;8.60;99.90;;;;;;2089531;28;20103;-74
2023/02/05 02:43:10;;;;;;;39.15;13.90;;;8.50;99.90;;;;;;2091108;28;20038;-74
2023/02/05 02:44:18;;;;;;;35.47;15.60;;;8.50;99.90;;;;;;2094386;28;20372;-74
2023/02/05 02:45:21;;;;;;;37.17;15.25;;;8.60;99.90;;;;;;2091891;28;20440;-74
2023/02/05 02:46:33;;;;;;;34.35;14.38;;;8.60;99.90;;;;;;2091169;28;20040;-74
2023/02/05 02:47:39;;;;;;;35.13;13.98;;;8.50;99.90;;;;;;2090907;28;21435;-74
2023/02/05 02:48:41;;;;;;;35.40;14.23;;;8.60;99.90;;;;;;2090788;28;20040;-74
2023/02/05 02:49:54;;;;;;;33.50;14.40;;;8.60;99.90;;;;;;2089065;28;20035;-74
2023/02/05 02:50:57;;;;;;;40.58;14.10;;;8.60;99.90;;;;;;2097569;28;20034;-74
2023/02/05 02:52:01;;;;;;;38.55;15.82;;;8.60;99.90;;;;;;2099333;28;20085;-74
2023/02/05 02:53:16;;;;;;;36.17;14.13;;;8.60;99.90;;;;;;2090709;28;20188;-74
2023/02/05 02:54:19;;;;;;;41.17;15.38;;;8.60;99.90;;;;;;2089893;28;20023;-74
2023/02/05 02:55:21;;;;;;;35.45;14.23;;;8.60;99.90;;;;;;2091867;28;20036;-74
2023/02/05 02:56:24;;;;;;;37.60;15.63;;;8.60;99.90;;;;;;2090055;28;20528;-74
2023/02/05 02:57:27;;;;;;;36.22;14.18;;;8.60;99.90;;;;;;2091491;28;20058;-74
2023/02/05 02:58:39;;;;;;;42.33;14.05;;;8.70;99.90;;;;;;2091884;28;20028;-74
2023/02/05 02:59:41;;;;;;;44.15;15.63;;;8.70;99.90;;;;;;2091520;28;20031;-74
2023/02/05 03:00:44;;;;;;;40.35;14.85;;;8.70;99.90;;;;;;2091898;28;20361;-74
2023/02/05 03:01:48;;;;;;;42.40;15.52;;;8.60;99.90;;;;;;2095684;28;20024;-74
2023/02/05 03:02:53;;;;;;;30.15;13.30;;;8.70;99.90;;;;;;2090236;28;20029;-74
2023/02/05 03:03:59;;;;;;;38.10;14.30;;;8.70;99.90;;;;;;2090305;28;20116;-74
2023/02/05 03:05:05;;;;;;;42.55;15.48;;;8.60;99.90;;;;;;2092584;28;20044;-74
2023/02/05 03:06:10;;;;;;;34.03;14.70;;;8.70;99.90;;;;;;2090830;28;20036;-74
2023/02/05 03:07:21;;;;;;;35.65;14.43;;;8.70;99.90;;;;;;2090303;28;20029;-74
2023/02/05 03:08:53;;;;;;;45.20;15.25;;;8.60;99.90;;;;;;2090904;28;20040;-74
2023/02/05 03:10:06;;;;;;;42.13;15.60;;;8.70;99.90;;;;;;2079326;28;20413;-74
2023/02/05 03:11:14;;;;;;;37.65;14.43;;;8.60;99.90;;;;;;2089211;28;20096;-75
2023/02/05 03:12:15;;;;;;;44.30;15.48;;;8.60;99.90;;;;;;2088477;28;20063;-74
2023/02/05 03:13:15;;;;;;;34.55;15.90;;;8.60;99.90;;;;;;2093292;28;20150;-74
2023/02/05 03:14:16;;;;;;;35.90;14.75;;;8.60;99.90;;;;;;2089123;28;20138;-74
2023/02/05 03:15:17;;;;;;;31.63;14.07;;;8.70;99.90;;;;;;2091432;28;20029;-74
2023/02/05 03:16:19;;;;;;;36.58;14.07;;;8.60;99.90;;;;;;2089826;28;20025;-74
2023/02/05 03:17:21;;;;;;;37.35;14.60;;;8.60;99.90;;;;;;2091132;28;20384;-74
2023/02/05 03:18:22;;;;;;;37.90;14.32;;;8.70;99.90;;;;;;2088245;28;20040;-74
2023/02/05 03:19:23;;;;;;;33.33;14.70;;;8.70;99.90;;;;;;2091022;28;20108;-74
2023/02/05 03:20:28;;;;;;;37.67;14.52;;;8.70;99.90;;;;;;2092243;28;20078;-74
2023/02/05 03:21:40;;;;;;;36.78;15.27;;;8.70;99.90;;;;;;2090857;28;20024;-74
2023/02/05 03:22:41;;;;;;;45.05;15.18;;;8.70;99.90;;;;;;2089522;28;20027;-74
2023/02/05 03:23:41;;;;;;;37.25;15.55;;;8.70;99.90;;;;;;2093494;28;20021;-74
2023/02/05 03:24:42;;;;;;;38.17;14.25;;;8.70;99.90;;;;;;2092100;28;20113;-74
2023/02/05 03:25:43;;;;;;;38.25;15.63;;;8.70;99.90;;;;;;2091369;28;20101;-74
2023/02/05 03:26:43;;;;;;;40.45;15.93;;;8.70;99.90;;;;;;2091830;28;20032;-74
2023/02/05 03:27:44;;;;;;;42.40;14.55;;;8.70;99.90;;;;;;2091857;28;20051;-74
2023/02/05 03:28:45;;;;;;;39.83;15.30;;;8.70;99.90;;;;;;2093855;28;20047;-74
2023/02/05 03:29:46;;;;;;;38.08;15.18;;;8.70;99.90;;;;;;2083017;28;20025;-74
2023/02/05 03:31:10;;;;;;;33.75;14.38;;;8.70;99.90;;;;;;2083473;28;20033;-74
2023/02/05 03:32:33;;;;;;;34.42;14.45;;;8.70;99.90;;;;;;2088297;28;20168;-75
2023/02/05 03:33:47;;;;;;;38.08;14.48;;;8.70;99.90;;;;;;2090211;28;20659;-74
2023/02/05 03:35:12;;;;;;;35.50;13.23;;;8.70;99.90;;;;;;2091242;28;20025;-74
2023/02/05 03:36:27;;;;;;;40.22;15.13;;;8.70;99.90;;;;;;2088749;28;20078;-74
2023/02/05 03:37:39;;;;;;;38.85;14.60;;;8.60;99.90;;;;;;2087659;28;20025;-74
2023/02/05 03:39:11;;;;;;;35.75;13.90;;;8.70;99.90;;;;;;2092848;28;20108;-74
2023/02/05 03:40:24;;;;;;;39.17;15.48;;;8.60;99.90;;;;;;2087105;28;20101;-74
2023/02/05 03:41:56;;;;;;;39.50;14.43;;;8.60;99.90;;;;;;2091402;28;20033;-74
2023/02/05 03:43:05;;;;;;;33.78;15.07;;;8.50;99.90;;;;;;2089934;28;20048;-74
2023/02/05 03:44:22;;;;;;;37.08;13.85;;;8.50;99.90;;;;;;2089436;28;20703;-74
2023/02/05 03:45:42;;;;;;;37.47;14.73;;;8.50;99.90;;;;;;2090222;28;20076;-74
2023/02/05 03:47:21;;;;;;;;;;;8.50;99.90;;;;;;2093845;28;20024;-74
2023/02/05 03:48:51;;;;;;;37.15;15.15;;;8.40;99.90;;;;;;2075064;28;19919;-74
2023/02/05 03:49:57;;;;;;;36.60;15.60;;;8.40;99.90;;;;;;2075591;28;20041;-74
2023/02/05 03:51:25;;;;;;;38.22;15.07;;;8.40;99.90;;;;;;2075822;28;20032;-74
2023/02/05 03:52:36;;;;;;;37.85;15.05;;;8.40;99.90;;;;;;2074929;28;20030;-74
2023/02/05 03:53:59;;;;;;;41.22;15.27;;;8.40;99.90;;;;;;2075790;28;20021;-74
2023/02/05 03:55:09;;;;;;;41.13;15.38;;;8.40;99.90;;;;;;2092112;28;20091;-74
2023/02/05 03:56:52;;;;;;;43.60;16.38;;;8.40;99.90;;;;;;2092453;28;20017;-74
2023/02/05 03:58:05;;;;;;;40.78;16.58;;;8.40;99.90;;;;;;2090440;28;20088;-74
2023/02/05 03:59:07;;;;;;;37.55;14.43;;;8.40;99.90;;;;;;2090667;28;20040;-74
2023/02/05 04:00:09;;;;;;;38.53;15.38;;;8.40;99.90;;;;;;2091311;28;20016;-74
2023/02/05 04:01:11;;;;;;;38.72;16.20;;;8.40;99.90;;;;;;2091094;28;20484;-74
2023/02/05 04:02:12;;;;;;;38.35;16.23;;;8.40;99.90;;;;;;2091018;28;20623;-74
2023/02/05 04:03:14;;;;;;;35.55;15.30;;;8.50;99.90;;;;;;2092750;28;20036;-74
2023/02/05 04:04:15;;;;;;;39.58;15.20;;;8.50;99.90;;;;;;2091252;28;20025;-74
2023/02/05 04:05:16;;;;;;;43.17;16.52;;;8.50;99.90;;;;;;2090243;28;20020;-74
2023/02/05 04:06:16;;;;;;;44.25;16.40;;;8.50;99.90;;;;;;2093802;28;20024;-74
2023/02/05 04:07:17;;;;;;;39.15;16.63;;;8.60;99.90;;;;;;2091015;28;20385;-74
2023/02/05 04:08:17;;;;;;;40.10;16.45;;;8.50;99.90;;;;;;2090469;28;20021;-74
2023/02/05 04:09:18;;;;;;;39.42;17.70;;;8.60;99.90;;;;;;2091854;28;20024;-74
2023/02/05 04:10:19;;;;;;;40.85;17.67;;;8.60;99.90;;;;;;2091875;28;20039;-74
2023/02/05 04:11:19;;;;;;;48.05;18.17;;;8.60;99.90;;;;;;2093063;28;20031;-74
2023/02/05 04:12:20;;;;;;;39.53;19.00;;;8.60;99.90;;;;;;2093222;28;20411;-74
2023/02/05 04:13:21;;;;;;;41.80;18.10;;;8.60;99.90;;;;;;2091143;28;20029;-74
2023/02/05 04:14:21;;;;;;;42.28;18.38;;;8.60;99.90;;;;;;2092502;28;20071;-75
2023/02/05 04:15:22;;;;;;;45.40;19.17;;;8.60;99.90;;;;;;2090617;28;20611;-74
2023/02/05 04:16:22;;;;;;;45.65;19.08;;;8.60;99.90;;;;;;2091222;28;20460;-74
2023/02/05 04:17:22;;;;;;;43.78;18.95;;;8.60;99.90;;;;;;2091338;28;20025;-74
2023/02/05 04:18:23;;;;;;;43.60;18.63;;;8.60;99.90;;;;;;2090930;28;20100;-75
2023/02/05 04:19:23;;;;;;;50.13;19.33;;;8.60;99.90;;;;;;2092380;28;20036;-74
2023/02/05 04:20:24;;;;;;;41.80;18.88;;;8.60;99.90;;;;;;2092149;28;20086;-74
2023/02/05 04:21:25;;;;;;;41.40;19.80;;;8.60;99.90;;;;;;2090765;28;20029;-74
2023/02/05 04:22:25;;;;;;;43.85;19.58;;;8.60;99.90;;;;;;2093655;28;20033;-74
2023/02/05 04:23:26;;;;;;;48.50;21.13;;;8.60;99.90;;;;;;2090840;28;20033;-74
2023/02/05 04:24:27;;;;;;;40.25;19.05;;;8.60;99.90;;;;;;2096614;28;20028;-74
2023/02/05 04:25:27;;;;;;;40.67;19.70;;;8.60;99.90;;;;;;2096079;28;20068;-74
2023/02/05 04:26:28;;;;;;;46.83;20.70;;;8.60;99.90;;;;;;2094269;28;20033;-74
2023/02/05 04:27:28;;;;;;;43.15;20.15;;;8.60;99.90;;;;;;2095039;28;20077;-74
2023/02/05 04:28:29;;;;;;;49.92;20.02;;;8.60;99.90;;;;;;2092201;28;20031;-74
2023/02/05 04:29:29;;;;;;;41.45;21.52;;;8.70;99.90;;;;;;2093586;28;20035;-74
2023/02/05 04:30:31;;;;;;;50.58;21.23;;;8.60;99.90;;;;;;2092751;28;20020;-74
2023/02/05 04:31:31;;;;;;;46.30;21.35;;;8.70;99.90;;;;;;2091988;28;20483;-74
2023/02/05 04:32:32;;;;;;;46.70;22.05;;;8.70;99.90;;;;;;2092306;28;20085;-74
2023/02/05 04:33:33;;;;;;;48.60;22.52;;;8.60;99.90;;;;;;2095309;28;20023;-74
2023/02/05 04:34:33;;;;;;;44.95;20.92;;;8.60;99.90;;;;;;2091372;28;20029;-74
2023/02/05 04:35:34;;;;;;;48.45;21.60;;;8.60;99.90;;;;;;2091590;28;20029;-74
2023/02/05 04:36:34;;;;;;;42.25;20.50;;;8.70;99.90;;;;;;2093121;28;20046;-74
2023/02/05 04:37:35;;;;;;;44.50;22.17;;;8.70;99.90;;;;;;2093836;28;20036;-74
2023/02/05 04:38:35;;;;;;;44.45;20.55;;;8.70;99.90;;;;;;2092412;28;20670;-74
2023/02/05 04:39:36;;;;;;;42.97;20.77;;;8.70;99.90;;;;;;2092110;28;20059;-74
2023/02/05 04:40:37;;;;;;;45.67;21.65;;;8.70;99.90;;;;;;2090738;28;20024;-74
2023/02/05 04:41:37;;;;;;;51.22;21.60;;;8.70;99.90;;;;;;2092411;28;20695;-74
2023/02/05 04:42:38;;;;;;;51.58;22.25;;;8.70;99.90;;;;;;2091507;28;20033;-74
2023/02/05 04:43:38;;;;;;;46.78;20.90;;;8.70;99.90;;;;;;2092213;28;20060;-74
2023/02/05 04:44:39;;;;;;;45.08;21.67;;;8.70;99.90;;;;;;2092568;28;20032;-74
2023/02/05 04:45:39;;;;;;;54.40;24.65;;;8.70;99.90;;;;;;2092735;28;20021;-75
2023/02/05 04:46:40;;;;;;;37.28;21.77;;;8.70;99.90;;;;;;2091568;28;20038;-75
2023/02/05 04:47:40;;;;;;;51.00;22.75;;;8.70;99.90;;;;;;2090050;28;20099;-74
2023/02/05 04:48:41;;;;;;;48.92;23.20;;;8.70;99.90;;;;;;2091263;28;20029;-74
2023/02/05 04:49:41;;;;;;;49.50;23.08;;;8.70;99.90;;;;;;2091763;28;20025;-74
2023/02/05 04:50:42;;;;;;;44.40;23.00;;;8.70;99.90;;;;;;2090667;28;20028;-74
2023/02/05 04:51:42;;;;;;;47.53;21.98;;;8.70;99.90;;;;;;2091808;28;20028;-74
2023/02/05 04:52:43;;;;;;;45.97;21.95;;;8.70;99.90;;;;;;2092141;28;20146;-74
2023/02/05 04:53:44;;;;;;;53.35;23.70;;;8.70;99.90;;;;;;2094173;28;20098;-75
2023/02/05 04:54:45;;;;;;;50.95;23.58;;;8.70;99.90;;;;;;2092484;28;20032;-75
2023/02/05 04:55:45;;;;;;;52.00;23.70;;;8.70;99.90;;;;;;2093922;28;20099;-75
2023/02/05 04:56:46;;;;;;;46.35;22.38;;;8.70;99.90;;;;;;2094454;28;20024;-75
2023/02/05 04:57:46;;;;;;;47.03;23.98;;;8.70;99.90;;;;;;2092228;28;20055;-75
2023/02/05 04:58:47;;;;;;;51.03;23.55;;;8.70;99.90;;;;;;2093666;28;20095;-75
2023/02/05 04:59:47;;;;;;;47.42;23.73;;;8.70;99.90;;;;;;2093516;28;20020;-75
2023/02/05 05:00:48;;;;;;;51.05;24.85;;;8.70;99.90;;;;;;2090973;28;20112;-75
2023/02/05 05:01:48;;;;;;;45.97;24.45;;;8.70;99.90;;;;;;2091149;28;20036;-75
2023/02/05 05:02:49;;;;;;;46.85;24.10;;;8.70;99.90;;;;;;2094596;28;20463;-75
2023/02/05 05:03:50;;;;;;;47.33;24.00;;;8.80;99.90;;;;;;2092775;28;20153;-75
2023/02/05 05:04:50;;;;;;;46.58;25.17;;;8.80;99.90;;;;;;2093727;28;20028;-75
2023/02/05 05:05:51;;;;;;;50.25;25.25;;;8.80;99.90;;;;;;2090325;28;20029;-75
2023/02/05 05:06:51;;;;;;;54.15;26.83;;;8.80;99.90;;;;;;2090366;28;20032;-75
2023/02/05 05:07:52;;;;;;;50.25;25.63;;;8.80;99.90;;;;;;2092819;28;20466;-75
2023/02/05 05:08:53;;;;;;;49.22;26.77;;;8.80;99.90;;;;;;2092744;28;20025;-75
2023/02/05 05:09:53;;;;;;;57.28;27.25;;;8.80;99.90;;;;;;2090060;28;20032;-75
2023/02/05 05:10:54;;;;;;;48.08;26.17;;;8.80;99.90;;;;;;2090673;28;20025;-75
2023/02/05 05:11:55;;;;;;;49.25;26.35;;;8.80;99.90;;;;;;2090397;28;20024;-75
2023/02/05 05:12:55;;;;;;;49.75;25.92;;;8.80;99.90;;;;;;2092248;28;20013;-75
2023/02/05 05:13:56;;;;;;;45.03;26.70;;;8.80;99.90;;;;;;2094737;28;20028;-75
2023/02/05 05:14:57;;;;;;;46.53;26.08;;;8.90;99.90;;;;;;2093493;28;20028;-75
2023/02/05 05:15:57;;;;;;;44.10;25.48;;;8.90;99.90;;;;;;2093806;28;20008;-75
2023/02/05 05:16:58;;;;;;;47.70;25.77;;;8.90;99.90;;;;;;2090686;28;20028;-75
2023/02/05 05:17:58;;;;;;;47.92;26.40;;;8.90;99.90;;;;;;2091979;28;20794;-75
2023/02/05 05:18:59;;;;;;;49.60;26.60;;;8.90;99.90;;;;;;2092212;28;20056;-75
2023/02/05 05:20:00;;;;;;;48.95;27.10;;;8.90;99.90;;;;;;2093697;28;20023;-75
2023/02/05 05:21:01;;;;;;;50.00;26.98;;;8.90;99.90;;;;;;2092819;28;20013;-75
2023/02/05 05:22:02;;;;;;;44.22;26.45;;;8.90;99.90;;;;;;2092971;28;20013;-75
2023/02/05 05:23:02;;;;;;;51.13;26.25;;;8.90;99.90;;;;;;2091052;28;20020;-75
2023/02/05 05:24:03;;;;;;;49.85;26.30;;;8.90;99.90;;;;;;2095671;28;20027;-75
2023/02/05 05:25:03;;;;;;;48.63;26.23;;;8.90;99.90;;;;;;2092194;28;20013;-75
2023/02/05 05:26:06;;;;;;;44.78;26.65;;;8.90;99.90;;;;;;2092161;28;20693;-75
2023/02/05 05:27:07;;;;;;;48.17;27.83;;;8.90;99.90;;;;;;2091328;28;20039;-75
2023/02/05 05:28:09;;;;;;;49.13;27.42;;;8.90;99.90;;;;;;2090672;28;20013;-75
2023/02/05 05:29:13;;;;;;;54.70;29.08;;;8.90;99.90;;;;;;2091930;28;20025;-75
2023/02/05 05:30:14;;;;;;;48.25;26.50;;;8.90;99.90;;;;;;2092469;28;20026;-75